Terminal Aerodrome Forecast
Issued by NWS

Home | Current Version | Previous Version | Text Only | Print | Product List | Glossary Off
Versions: 1 2 3 4 5 6 7 8 9 10 11 12 13 14

146
FTUS43 KICT 021720
TAFCNU
TAF
KCNU 021720Z 0218/0318 34008KT P6SM SCT030 BKN040
     FM030200 VRB03KT P6SM FEW050
     FM031600 VRB04KT P6SM FEW040=

USA.gov is the U.S. government's official web portal to all federal, state and local government web resources and services.